Time;durP1;ratioP1;P1;durP2;ratioP2;P2;SDS_P1;SDS_P2;PMS_P1;PMS_P2;Temp;Humidity;BMP_temperature;BMP_pressure;BME280_temperature;BME280_humidity;BME280_pressure;Samples;Min_cycle;Max_cycle;Signal;HPM_P1;HPM_P2
2022/08/24 00:01:47;;;;;;;1.00;0.70;;;20.80;99.90;;;;;;6107491;23;20396;-91
2022/08/24 00:04:14;;;;;;;0.95;0.80;;;20.80;99.90;;;;;;6106325;23;20024;-92
2022/08/24 00:06:43;;;;;;;0.60;0.60;;;20.80;99.90;;;;;;6111617;23;20023;-91
2022/08/24 00:09:10;;;;;;;0.50;0.50;;;20.80;99.90;;;;;;6120598;23;20080;-92
2022/08/24 00:11:37;;;;;;;0.80;0.70;;;20.80;99.90;;;;;;6120973;23;20025;-90
2022/08/24 00:14:04;;;;;;;0.55;0.55;;;20.70;99.90;;;;;;6114539;23;20021;-91
2022/08/24 00:16:31;;;;;;;0.82;0.45;;;20.70;99.90;;;;;;6111020;23;20084;-90
2022/08/24 00:18:59;;;;;;;1.55;1.00;;;20.70;99.90;;;;;;6111036;23;20024;-92
2022/08/24 00:21:26;;;;;;;0.70;0.70;;;20.60;99.90;;;;;;6110780;23;20087;-90
2022/08/24 00:23:53;;;;;;;0.90;0.82;;;20.60;99.90;;;;;;6111158;23;20048;-92
2022/08/24 00:26:20;;;;;;;0.70;0.70;;;20.60;99.90;;;;;;6111364;23;20083;-92
2022/08/24 00:28:55;;;;;;;0.73;0.73;;;20.60;99.90;;;;;;6115517;23;20320;-89
2022/08/24 00:31:22;;;;;;;1.58;0.90;;;20.50;99.90;;;;;;6109467;23;20315;-91
2022/08/24 00:33:49;;;;;;;1.10;0.80;;;20.60;99.90;;;;;;6107537;23;20017;-90
2022/08/24 00:36:16;;;;;;;0.98;0.88;;;20.60;99.90;;;;;;6108271;23;20021;-91
2022/08/24 00:38:43;;;;;;;0.80;0.80;;;20.60;99.90;;;;;;6109445;23;20021;-90
2022/08/24 00:41:12;;;;;;;0.80;0.80;;;20.60;99.90;;;;;;6109070;23;20021;-91
2022/08/24 00:43:42;;;;;;;0.98;0.80;;;20.60;99.90;;;;;;6109159;23;20028;-90
2022/08/24 00:46:26;;;;;;;0.75;0.75;;;20.60;99.90;;;;;;6110350;23;20396;-92
2022/08/24 00:49:03;;;;;;;0.85;0.75;;;20.60;99.90;;;;;;6136124;23;20021;-90
2022/08/24 00:51:41;;;;;;;0.77;0.77;;;20.60;99.90;;;;;;6135028;23;20084;-90
2022/08/24 00:54:11;;;;;;;0.70;0.70;;;20.60;99.90;;;;;;6137177;23;20017;-90
2022/08/24 00:56:53;;;;;;;0.63;0.60;;;20.60;99.90;;;;;;6138052;23;20044;-93
2022/08/24 00:59:22;;;;;;;0.47;0.47;;;20.70;99.90;;;;;;6138575;23;20101;-91
2022/08/24 01:01:50;;;;;;;0.60;0.60;;;20.70;99.90;;;;;;6135264;23;20460;-91
2022/08/24 01:04:27;;;;;;;0.95;0.75;;;20.70;99.90;;;;;;6131795;23;20017;-91
2022/08/24 01:06:55;;;;;;;0.65;0.60;;;20.70;99.90;;;;;;6136074;23;20024;-90
2022/08/24 01:09:22;;;;;;;0.50;0.50;;;20.70;99.90;;;;;;6136527;23;20017;-91
2022/08/24 01:11:50;;;;;;;2.08;0.98;;;20.70;99.90;;;;;;6137158;23;20079;-90
2022/08/24 01:14:18;;;;;;;0.63;0.60;;;20.70;99.90;;;;;;6134793;23;20071;-91
2022/08/24 01:19:42;;;;;;;0.40;0.40;;;20.80;99.90;;;;;;6166291;23;20027;-91
2022/08/24 01:22:47;;;;;;;0.60;0.38;;;20.80;99.90;;;;;;6161038;23;20515;-91
2022/08/24 01:25:14;;;;;;;0.50;0.45;;;20.70;99.90;;;;;;6179467;23;20025;-89
2022/08/24 01:27:42;;;;;;;0.43;0.43;;;20.70;99.90;;;;;;6129676;23;20027;-89
2022/08/24 01:30:12;;;;;;;0.55;0.40;;;20.70;99.90;;;;;;6130367;23;20013;-89
2022/08/24 01:43:23;;;;;;;0.40;0.40;;;20.60;99.90;;;;;;6144338;23;20147;-89
2022/08/24 01:45:50;;;;;;;0.20;0.20;;;20.60;99.90;;;;;;6106922;23;20021;-89
2022/08/24 01:48:18;;;;;;;0.30;0.30;;;20.60;99.90;;;;;;6105962;23;20017;-90
2022/08/24 01:50:49;;;;;;;0.40;0.40;;;20.60;99.90;;;;;;6108767;23;20040;-89
2022/08/24 01:53:16;;;;;;;0.50;0.50;;;20.60;99.90;;;;;;6106246;23;20025;-89
2022/08/24 01:55:43;;;;;;;0.30;0.30;;;20.50;99.90;;;;;;6106815;23;20051;-89
2022/08/24 01:58:11;;;;;;;0.30;0.30;;;20.50;99.90;;;;;;6106202;23;20431;-89
2022/08/24 02:00:38;;;;;;;0.30;0.30;;;20.50;99.90;;;;;;6106547;23;20039;-89
2022/08/24 02:03:05;;;;;;;0.20;0.20;;;20.50;99.90;;;;;;6107206;23;20024;-89
2022/08/24 02:05:33;;;;;;;0.25;0.25;;;20.50;99.90;;;;;;6108630;23;20025;-88
2022/08/24 02:08:00;;;;;;;0.20;0.20;;;20.50;99.90;;;;;;6106339;23;20025;-89
2022/08/24 02:10:27;;;;;;;0.30;0.30;;;20.40;99.90;;;;;;6106546;23;20495;-88
2022/08/24 02:12:57;;;;;;;0.25;0.25;;;20.40;99.90;;;;;;6106775;23;20025;-89
2022/08/24 02:15:35;;;;;;;0.10;0.10;;;20.40;99.90;;;;;;6108215;23;20024;-89
2022/08/24 02:18:02;;;;;;;0.35;0.30;;;20.40;99.90;;;;;;6107425;23;20474;-89
2022/08/24 02:20:29;;;;;;;0.30;0.30;;;20.40;99.90;;;;;;6110736;23;20052;-87
2022/08/24 02:22:56;;;;;;;0.20;0.20;;;20.40;99.90;;;;;;6118433;23;20116;-89
2022/08/24 02:25:23;;;;;;;0.20;0.20;;;20.50;99.90;;;;;;6119203;23;20013;-89
2022/08/24 02:27:50;;;;;;;0.30;0.30;;;20.50;99.90;;;;;;6110701;23;20017;-90
2022/08/24 02:30:17;;;;;;;0.25;0.25;;;20.50;99.90;;;;;;6106810;23;20021;-90
2022/08/24 02:32:45;;;;;;;0.20;0.20;;;20.50;99.90;;;;;;6111902;23;20108;-90
2022/08/24 02:35:13;;;;;;;0.22;0.22;;;20.50;99.90;;;;;;6137019;23;20540;-90
2022/08/24 02:37:40;;;;;;;0.30;0.30;;;20.50;99.90;;;;;;6135289;23;20047;-89
2022/08/24 02:40:10;;;;;;;0.28;0.22;;;20.50;99.90;;;;;;6137231;23;20017;-89
2022/08/24 02:42:37;;;;;;;0.32;0.32;;;20.40;99.90;;;;;;6134910;23;20027;-89
2022/08/24 02:45:04;;;;;;;0.30;0.30;;;20.40;99.90;;;;;;6135371;23;20025;-89
2022/08/24 02:47:31;;;;;;;0.30;0.30;;;20.50;99.90;;;;;;6134883;23;20028;-89
2022/08/24 02:50:06;;;;;;;0.20;0.20;;;20.50;99.90;;;;;;6139455;23;20024;-90
2022/08/24 02:52:34;;;;;;;0.30;0.30;;;20.50;99.90;;;;;;6134947;23;20020;-90
2022/08/24 02:55:01;;;;;;;0.40;0.40;;;20.50;99.90;;;;;;6136377;23;20028;-92
2022/08/24 02:57:28;;;;;;;0.40;0.40;;;20.50;99.90;;;;;;6135350;23;20017;-90
2022/08/24 02:59:55;;;;;;;1.00;0.60;;;20.40;99.90;;;;;;6135367;23;20474;-90
2022/08/24 03:02:22;;;;;;;0.40;0.40;;;20.40;99.90;;;;;;6135301;23;20642;-91
2022/08/24 03:04:49;;;;;;;0.30;0.30;;;20.40;99.90;;;;;;6140174;23;20021;-90
2022/08/24 03:07:16;;;;;;;0.50;0.35;;;20.30;99.90;;;;;;6139589;23;20020;-90
2022/08/24 03:09:43;;;;;;;0.30;0.30;;;20.30;99.90;;;;;;6136132;23;20031;-91
2022/08/24 03:12:10;;;;;;;0.20;0.20;;;20.30;99.90;;;;;;6134675;23;20052;-90
2022/08/24 03:14:37;;;;;;;0.40;0.40;;;20.30;99.90;;;;;;6135198;23;20016;-89
2022/08/24 03:17:04;;;;;;;0.43;0.35;;;20.30;99.90;;;;;;6134987;23;20024;-89
2022/08/24 03:19:32;;;;;;;0.50;0.40;;;20.30;99.90;;;;;;6134917;23;20048;-88
2022/08/24 03:21:58;;;;;;;0.30;0.30;;;20.30;99.90;;;;;;6135539;23;20024;-90
2022/08/24 03:24:25;;;;;;;0.32;0.32;;;20.30;99.90;;;;;;6134641;23;20013;-89
2022/08/24 03:26:52;;;;;;;0.32;0.30;;;20.30;99.90;;;;;;6135237;23;20316;-91
2022/08/24 03:29:20;;;;;;;0.45;0.45;;;20.30;99.90;;;;;;6134827;23;20075;-89
2022/08/24 03:31:49;;;;;;;0.30;0.30;;;20.40;99.90;;;;;;6138640;23;20044;-89
2022/08/24 03:34:18;;;;;;;0.40;0.40;;;20.30;99.90;;;;;;6137433;23;20404;-90
2022/08/24 03:36:46;;;;;;;0.30;0.30;;;20.30;99.90;;;;;;6140633;23;20028;-90
2022/08/24 03:39:13;;;;;;;0.43;0.43;;;20.40;99.90;;;;;;6134587;23;20459;-90
2022/08/24 03:41:40;;;;;;;0.40;0.40;;;20.40;99.90;;;;;;6135277;23;20311;-89
2022/08/24 03:44:09;;;;;;;0.40;0.30;;;20.40;99.90;;;;;;6134680;23;20084;-90
2022/08/24 03:46:36;;;;;;;0.30;0.30;;;20.40;99.90;;;;;;6135435;23;20021;-89
2022/08/24 03:49:06;;;;;;;0.50;0.47;;;20.40;99.90;;;;;;6135324;23;20026;-90
2022/08/24 03:51:34;;;;;;;0.30;0.30;;;20.40;99.90;;;;;;6135657;23;20024;-91
2022/08/24 03:54:01;;;;;;;0.30;0.30;;;20.50;99.90;;;;;;6134477;23;20086;-89
2022/08/24 03:56:28;;;;;;;0.55;0.45;;;20.40;99.90;;;;;;6135400;23;20047;-89
2022/08/24 03:58:56;;;;;;;0.30;0.30;;;20.50;99.90;;;;;;6135135;23;20092;-91
2022/08/24 04:01:23;;;;;;;0.30;0.30;;;20.40;99.90;;;;;;6134668;23;20021;-90
2022/08/24 04:03:52;;;;;;;0.38;0.38;;;20.40;99.90;;;;;;6135024;23;20075;-90
2022/08/24 04:06:19;;;;;;;0.50;0.50;;;20.40;99.90;;;;;;6139409;23;20013;-89
2022/08/24 04:08:46;;;;;;;0.65;0.65;;;20.40;99.90;;;;;;6136845;23;20028;-91
2022/08/24 04:11:16;;;;;;;0.52;0.50;;;20.40;99.90;;;;;;6133981;23;20016;-90
2022/08/24 04:13:44;;;;;;;0.40;0.40;;;20.40;99.90;;;;;;6134422;23;20017;-90
2022/08/24 04:16:12;;;;;;;0.40;0.40;;;20.40;99.90;;;;;;6134717;23;20020;-90
2022/08/24 04:18:41;;;;;;;0.95;0.40;;;20.40;99.90;;;;;;6135967;23;20051;-90
2022/08/24 04:21:28;;;;;;;1.75;0.68;;;20.40;99.90;;;;;;6134303;23;20035;-91
2022/08/24 04:23:55;;;;;;;1.73;0.70;;;20.40;99.90;;;;;;6134891;23;20056;-92
2022/08/24 04:26:24;;;;;;;0.40;0.30;;;20.40;99.90;;;;;;6134889;23;20016;-92
2022/08/24 04:29:14;;;;;;;0.50;0.50;;;20.40;99.90;;;;;;6147406;23;20436;-91
2022/08/24 04:31:41;;;;;;;0.65;0.50;;;20.40;99.90;;;;;;6135830;23;20055;-92
2022/08/24 04:34:09;;;;;;;0.50;0.50;;;20.40;99.90;;;;;;6135226;23;20078;-92
2022/08/24 04:36:36;;;;;;;0.75;0.60;;;20.40;99.90;;;;;;6135177;23;20017;-93
2022/08/24 04:39:04;;;;;;;0.47;0.47;;;20.40;99.90;;;;;;6135648;23;20083;-91
2022/08/24 04:41:31;;;;;;;0.50;0.47;;;20.40;99.90;;;;;;6153122;23;20016;-91
2022/08/24 04:44:00;;;;;;;0.55;0.55;;;20.40;99.90;;;;;;6150888;23;20194;-92
2022/08/24 04:46:27;;;;;;;0.40;0.30;;;20.40;99.90;;;;;;6136177;23;20024;-92
2022/08/24 04:48:54;;;;;;;0.40;0.40;;;20.40;99.90;;;;;;6133534;23;20024;-93
2022/08/24 04:51:21;;;;;;;0.40;0.40;;;20.40;99.90;;;;;;6133659;23;20094;-91
2022/08/24 04:53:49;;;;;;;0.40;0.40;;;20.40;99.90;;;;;;6133754;23;20021;-93
2022/08/24 04:56:22;;;;;;;0.50;0.40;;;20.40;99.90;;;;;;6134640;23;20019;-91
2022/08/24 04:58:50;;;;;;;0.45;0.30;;;20.40;99.90;;;;;;6134745;23;20017;-92
2022/08/24 05:01:19;;;;;;;0.73;0.40;;;20.40;99.90;;;;;;6134853;23;20028;-93
2022/08/24 05:03:49;;;;;;;0.40;0.40;;;20.50;99.90;;;;;;6132187;23;20025;-93
2022/08/24 05:06:23;;;;;;;0.35;0.30;;;20.50;99.90;;;;;;6134913;23;20020;-91
2022/08/24 05:08:50;;;;;;;0.60;0.60;;;20.50;99.90;;;;;;6137466;23;20021;-94
2022/08/24 05:11:18;;;;;;;0.40;0.40;;;20.60;99.90;;;;;;6135485;23;20099;-93
2022/08/24 05:13:45;;;;;;;1.08;0.60;;;20.60;99.90;;;;;;6132686;23;20020;-92
2022/08/24 05:16:14;;;;;;;0.30;0.30;;;20.60;99.90;;;;;;6133418;23;20016;-92
2022/08/24 05:18:41;;;;;;;0.30;0.30;;;20.60;99.90;;;;;;6131846;23;20024;-92
2022/08/24 05:21:09;;;;;;;0.25;0.25;;;20.60;99.90;;;;;;6133906;23;20016;-92
2022/08/24 05:23:37;;;;;;;0.45;0.45;;;20.70;99.90;;;;;;6137200;23;20027;-92
2022/08/24 05:26:09;;;;;;;0.88;0.52;;;20.70;99.90;;;;;;6139424;23;20055;-91
2022/08/24 05:28:37;;;;;;;0.47;0.40;;;20.70;99.90;;;;;;6163908;23;20358;-94
2022/08/24 05:31:06;;;;;;;0.30;0.30;;;20.80;99.90;;;;;;6137000;23;20094;-88
2022/08/24 05:33:34;;;;;;;0.85;0.50;;;20.80;99.90;;;;;;6135138;23;20112;-88
2022/08/24 05:36:01;;;;;;;0.30;0.30;;;20.80;99.90;;;;;;6140453;23;20333;-88
2022/08/24 05:38:28;;;;;;;0.40;0.40;;;20.80;99.90;;;;;;6143209;23;20080;-91
2022/08/24 05:40:55;;;;;;;0.40;0.40;;;20.80;99.90;;;;;;6143057;23;20028;-91
2022/08/24 05:43:23;;;;;;;0.40;0.40;;;20.80;99.90;;;;;;6141092;23;20025;-90
2022/08/24 05:45:50;;;;;;;0.30;0.30;;;20.80;99.90;;;;;;6140253;23;20020;-90
2022/08/24 05:48:17;;;;;;;0.47;0.45;;;20.80;99.90;;;;;;6144923;23;20615;-90
2022/08/24 05:50:51;;;;;;;0.40;0.40;;;20.90;99.90;;;;;;6142139;23;20024;-89
2022/08/24 05:53:19;;;;;;;0.40;0.40;;;20.90;99.90;;;;;;6138661;23;20043;-89
2022/08/24 05:55:46;;;;;;;0.50;0.50;;;20.90;99.90;;;;;;6134247;23;20028;-89
2022/08/24 05:58:13;;;;;;;0.82;0.60;;;20.80;99.90;;;;;;6135758;23;20024;-88
2022/08/24 06:00:49;;;;;;;0.73;0.60;;;20.80;99.90;;;;;;6138017;23;20016;-88
2022/08/24 06:03:16;;;;;;;0.93;0.47;;;20.80;99.90;;;;;;6135958;23;20032;-90
2022/08/24 06:05:43;;;;;;;0.40;0.40;;;20.90;99.90;;;;;;6135968;23;20028;-89
2022/08/24 06:08:10;;;;;;;0.68;0.60;;;20.90;99.90;;;;;;6138003;23;20013;-89
2022/08/24 06:10:46;;;;;;;0.47;0.47;;;20.90;99.90;;;;;;6141346;23;20021;-90
2022/08/24 06:13:17;;;;;;;0.40;0.40;;;21.00;99.90;;;;;;6138550;23;20071;-91
2022/08/24 06:15:44;;;;;;;0.50;0.40;;;21.00;99.90;;;;;;6136684;23;20013;-91
2022/08/24 06:18:31;;;;;;;0.60;0.50;;;21.00;99.90;;;;;;6147148;23;20040;-90
2022/08/24 06:21:06;;;;;;;0.38;0.38;;;21.00;99.90;;;;;;6133372;23;20075;-90
2022/08/24 06:23:33;;;;;;;1.08;0.47;;;21.00;99.90;;;;;;6133938;23;20047;-89
2022/08/24 06:28:49;;;;;;;0.50;0.50;;;21.00;99.90;;;;;;6164766;23;20024;-91
2022/08/24 06:31:16;;;;;;;0.47;0.47;;;21.00;99.90;;;;;;6133277;23;20021;-90
2022/08/24 06:33:43;;;;;;;0.35;0.30;;;21.10;99.90;;;;;;6134908;23;20085;-90
2022/08/24 06:36:10;;;;;;;0.45;0.30;;;21.10;99.90;;;;;;6135953;23;20025;-90
2022/08/24 06:38:37;;;;;;;0.28;0.28;;;21.10;99.90;;;;;;6133903;23;20074;-91
2022/08/24 06:41:06;;;;;;;2.38;1.02;;;21.10;99.90;;;;;;6135509;23;20407;-92
2022/08/24 06:43:33;;;;;;;0.30;0.30;;;21.20;99.90;;;;;;6132377;23;20086;-90
2022/08/24 06:46:00;;;;;;;0.30;0.30;;;21.20;99.90;;;;;;6133576;23;20619;-89
2022/08/24 06:48:29;;;;;;;0.30;0.30;;;21.30;99.90;;;;;;6135153;23;20387;-90
2022/08/24 06:50:57;;;;;;;0.20;0.20;;;21.40;99.90;;;;;;6135481;23;20028;-90
2022/08/24 06:53:24;;;;;;;0.45;0.45;;;21.40;99.90;;;;;;6133653;23;20519;-90
2022/08/24 06:55:56;;;;;;;0.32;0.30;;;21.40;99.90;;;;;;6133036;23;20024;-90
2022/08/24 06:58:30;;;;;;;0.77;0.50;;;21.40;99.90;;;;;;6132919;23;20043;-90
2022/08/24 07:00:57;;;;;;;1.00;0.50;;;21.50;99.90;;;;;;6147328;23;20030;-90
2022/08/24 07:03:24;;;;;;;0.40;0.30;;;21.50;99.90;;;;;;6143013;23;20327;-93
2022/08/24 07:05:56;;;;;;;0.40;0.40;;;21.60;99.90;;;;;;6135413;23;20039;-91
2022/08/24 07:08:23;;;;;;;0.35;0.35;;;21.60;99.90;;;;;;6137482;23;20012;-90
2022/08/24 07:10:50;;;;;;;0.30;0.30;;;21.70;99.90;;;;;;6136303;23;20486;-91
2022/08/24 07:13:17;;;;;;;0.75;0.47;;;21.70;99.90;;;;;;6136096;23;20024;-90
2022/08/24 07:15:44;;;;;;;0.50;0.35;;;21.70;99.90;;;;;;6136060;23;20074;-93
2022/08/24 07:18:14;;;;;;;0.55;0.50;;;21.70;99.90;;;;;;6135898;23;20036;-91
2022/08/24 07:20:42;;;;;;;0.40;0.30;;;21.60;99.90;;;;;;6135097;23;20094;-91
2022/08/24 07:23:10;;;;;;;0.30;0.30;;;21.60;99.90;;;;;;6136643;23;20443;-92
2022/08/24 07:25:37;;;;;;;0.20;0.20;;;21.70;99.90;;;;;;6135648;23;20024;-90
2022/08/24 07:28:07;;;;;;;0.30;0.30;;;21.80;99.90;;;;;;6137468;23;20021;-90
2022/08/24 07:30:37;;;;;;;0.30;0.30;;;21.90;99.90;;;;;;6135933;23;20393;-90
2022/08/24 07:33:04;;;;;;;0.32;0.30;;;21.90;99.90;;;;;;6134488;23;20086;-90
2022/08/24 07:35:32;;;;;;;0.20;0.20;;;21.90;99.90;;;;;;6136607;23;20448;-90
2022/08/24 07:37:59;;;;;;;0.50;0.50;;;21.90;99.90;;;;;;6135162;23;20020;-90
2022/08/24 07:40:27;;;;;;;0.20;0.20;;;22.00;99.90;;;;;;6135496;23;20502;-90
2022/08/24 07:42:55;;;;;;;0.40;0.40;;;22.10;99.90;;;;;;6135040;23;20099;-90
2022/08/24 07:45:22;;;;;;;0.30;0.30;;;22.20;99.90;;;;;;6135642;23;20266;-89
2022/08/24 07:47:50;;;;;;;0.30;0.30;;;22.20;99.90;;;;;;6135447;23;20016;-90
2022/08/24 07:50:24;;;;;;;0.40;0.40;;;22.40;99.90;;;;;;6138304;23;20474;-90
2022/08/24 07:52:51;;;;;;;0.45;0.35;;;22.40;99.90;;;;;;6134542;23;20016;-91
2022/08/24 07:55:18;;;;;;;0.40;0.40;;;22.50;99.90;;;;;;6135251;23;20344;-90
2022/08/24 07:57:46;;;;;;;0.55;0.52;;;22.60;99.90;;;;;;6135707;23;20024;-90
2022/08/24 08:00:14;;;;;;;0.40;0.40;;;22.60;99.90;;;;;;6136238;23;20082;-90
2022/08/24 08:02:45;;;;;;;0.50;0.50;;;22.70;99.90;;;;;;6136735;23;20021;-90
2022/08/24 08:05:14;;;;;;;0.50;0.50;;;22.80;99.90;;;;;;6140386;23;20055;-90
2022/08/24 08:07:41;;;;;;;0.38;0.38;;;23.00;99.90;;;;;;6139669;23;20012;-90
2022/08/24 08:10:09;;;;;;;0.50;0.40;;;23.10;99.90;;;;;;6138385;23;20032;-87
2022/08/24 08:12:36;;;;;;;0.57;0.55;;;23.20;99.90;;;;;;6137174;23;20025;-88
2022/08/24 08:15:04;;;;;;;0.73;0.60;;;23.20;99.90;;;;;;6138726;23;20443;-88
2022/08/24 08:17:31;;;;;;;0.80;0.70;;;23.30;99.90;;;;;;6136545;23;20096;-87
2022/08/24 08:20:01;;;;;;;0.50;0.45;;;23.30;99.90;;;;;;6139111;23;20035;-88
2022/08/24 08:25:13;;;;;;;2.55;1.10;;;23.60;99.90;;;;;;6169620;23;20017;-89
2022/08/24 08:27:40;;;;;;;0.65;0.57;;;23.70;99.90;;;;;;6137796;23;20168;-89
2022/08/24 08:30:08;;;;;;;0.68;0.68;;;23.70;99.90;;;;;;6137444;23;20012;-90
2022/08/24 08:32:35;;;;;;;0.98;0.80;;;23.70;99.90;;;;;;6137608;23;20490;-89
2022/08/24 08:35:02;;;;;;;0.85;0.60;;;23.80;99.90;;;;;;6140534;23;20021;-90
2022/08/24 08:37:43;;;;;;;1.02;0.60;;;23.80;99.90;;;;;;6146482;23;20019;-89
2022/08/24 08:40:17;;;;;;;1.05;0.70;;;23.90;99.90;;;;;;6139118;23;20104;-90
2022/08/24 08:43:04;;;;;;;0.47;0.47;;;23.80;99.90;;;;;;6137554;23;20490;-89
2022/08/24 08:45:44;;;;;;;0.75;0.63;;;23.90;99.90;;;;;;6141479;23;20163;-89
2022/08/24 08:48:38;;;;;;;0.50;0.50;;;24.00;99.90;;;;;;6135972;23;20098;-89
2022/08/24 08:51:56;;;;;;;0.45;0.45;;;23.80;99.90;;;;;;6183131;23;20070;-89
2022/08/24 08:54:37;;;;;;;0.45;0.45;;;23.80;99.90;;;;;;6036557;23;20018;-89
2022/08/24 08:57:19;;;;;;;0.75;0.50;;;23.80;99.90;;;;;;6015427;23;20022;-89
2022/08/24 08:59:59;;;;;;;0.90;0.70;;;23.90;99.90;;;;;;6115130;23;20029;-89
2022/08/24 09:02:27;;;;;;;2.13;0.57;;;23.90;99.90;;;;;;6160957;23;20021;-89
2022/08/24 09:05:16;;;;;;;0.55;0.47;;;24.10;99.90;;;;;;6186384;23;20012;-89
2022/08/24 09:07:52;;;;;;;0.50;0.50;;;24.30;99.90;;;;;;6186017;23;20023;-90
2022/08/24 09:10:32;;;;;;;0.57;0.43;;;24.40;99.90;;;;;;6163904;23;20537;-89
2022/08/24 09:13:34;;;;;;;0.32;0.32;;;24.50;99.90;;;;;;6162498;23;20028;-89
2022/08/24 09:16:14;;;;;;;0.40;0.40;;;24.60;99.90;;;;;;6137655;23;20036;-89
2022/08/24 09:18:49;;;;;;;0.95;0.65;;;24.60;99.90;;;;;;6182448;23;20047;-90
2022/08/24 09:21:53;;;;;;;0.40;0.40;;;24.60;99.90;;;;;;6173937;23;20024;-89
2022/08/24 09:24:20;;;;;;;0.50;0.50;;;24.70;99.90;;;;;;6186970;23;20328;-89
2022/08/24 09:27:10;;;;;;;0.55;0.52;;;24.80;99.90;;;;;;6183691;23;20024;-89
2022/08/24 09:29:40;;;;;;;0.40;0.40;;;25.00;99.90;;;;;;6184958;23;20209;-90
2022/08/24 09:32:10;;;;;;;0.40;0.40;;;25.10;99.90;;;;;;6185811;23;20043;-89
2022/08/24 09:34:52;;;;;;;0.45;0.40;;;25.20;99.90;;;;;;6187631;23;20347;-89
2022/08/24 09:37:31;;;;;;;0.47;0.47;;;25.40;99.90;;;;;;6160999;23;20063;-90
2022/08/24 09:40:35;;;;;;;0.75;0.60;;;25.50;99.90;;;;;;6185604;23;20020;-90
2022/08/24 09:43:21;;;;;;;0.55;0.43;;;25.60;99.90;;;;;;6163035;23;20521;-89
2022/08/24 09:46:12;;;;;;;0.22;0.22;;;25.70;99.90;;;;;;6185549;23;20012;-90
2022/08/24 09:48:53;;;;;;;0.80;0.50;;;26.00;99.90;;;;;;6139951;23;20474;-90
2022/08/24 09:51:47;;;;;;;0.30;0.30;;;26.10;99.90;;;;;;6137776;23;20083;-90
2022/08/24 09:54:42;;;;;;;0.65;0.60;;;26.10;99.90;;;;;;6160785;23;20513;-89
2022/08/24 09:57:30;;;;;;;0.40;0.40;;;26.00;99.90;;;;;;6138633;23;20111;-89
2022/08/24 10:00:38;;;;;;;0.95;0.50;;;25.90;99.90;;;;;;6189527;23;20059;-90
2022/08/24 10:03:42;;;;;;;0.40;0.40;;;26.00;99.90;;;;;;6163834;23;20024;-90
2022/08/24 10:06:11;;;;;;;0.40;0.30;;;26.10;99.90;;;;;;6185288;23;20112;-90
2022/08/24 10:08:56;;;;;;;0.30;0.30;;;26.00;99.90;;;;;;6160109;23;20017;-89
2022/08/24 10:11:43;;;;;;;0.88;0.60;;;26.00;99.90;;;;;;6159991;23;20021;-90
2022/08/24 10:14:32;;;;;;;0.50;0.50;;;25.90;99.90;;;;;;6110916;23;20197;-90
2022/08/24 10:17:14;;;;;;;0.22;0.22;;;25.70;99.90;;;;;;6184986;23;20026;-89
2022/08/24 10:19:52;;;;;;;0.40;0.40;;;25.70;99.90;;;;;;6184950;23;20415;-89
2022/08/24 10:22:35;;;;;;;0.55;0.40;;;25.80;99.90;;;;;;6160607;23;20281;-89
2022/08/24 10:25:23;;;;;;;0.50;0.50;;;25.70;99.90;;;;;;6157850;23;20020;-89
2022/08/24 10:28:02;;;;;;;0.30;0.30;;;25.90;99.90;;;;;;6137211;23;20036;-89
2022/08/24 10:30:50;;;;;;;0.63;0.40;;;26.20;99.90;;;;;;6161331;23;20069;-90
2022/08/24 10:33:19;;;;;;;0.77;0.52;;;26.50;99.90;;;;;;6165181;23;20020;-89
2022/08/24 10:36:14;;;;;;;0.68;0.55;;;26.70;99.90;;;;;;6164000;23;20036;-90
2022/08/24 10:39:47;;;;;;;1.20;0.68;;;26.70;99.90;;;;;;6186302;23;20021;-89
2022/08/24 10:45:16;;;;;;;0.30;0.30;;;27.20;99.90;;;;;;6199845;23;20444;-89
2022/08/24 10:48:15;;;;;;;0.30;0.30;;;27.40;99.90;;;;;;6159652;23;20023;-89
2022/08/24 10:50:49;;;;;;;0.30;0.30;;;27.50;99.90;;;;;;6139681;23;20032;-89
2022/08/24 10:53:22;;;;;;;0.30;0.30;;;27.80;99.90;;;;;;6160134;23;20059;-90
2022/08/24 10:56:10;;;;;;;0.40;0.40;;;27.70;99.90;;;;;;6135629;23;20013;-90
2022/08/24 10:58:50;;;;;;;1.65;0.73;;;27.50;99.90;;;;;;6159948;23;20031;-89
2022/08/24 11:01:27;;;;;;;0.47;0.47;;;27.40;99.90;;;;;;6160391;23;20028;-90
2022/08/24 11:04:03;;;;;;;0.52;0.50;;;27.30;99.90;;;;;;6137363;23;20476;-89
2022/08/24 11:06:39;;;;;;;0.50;0.50;;;27.10;99.90;;;;;;6185058;23;20525;-89
2022/08/24 11:09:10;;;;;;;1.02;0.60;;;27.20;99.90;;;;;;6137185;23;20424;-89
2022/08/24 11:11:45;;;;;;;0.50;0.50;;;27.30;99.90;;;;;;6163428;23;20032;-89
2022/08/24 11:14:25;;;;;;;0.70;0.70;;;27.60;99.90;;;;;;6135676;23;20020;-89
2022/08/24 11:16:52;;;;;;;0.85;0.55;;;27.80;99.90;;;;;;6160601;23;20074;-88
2022/08/24 11:19:27;;;;;;;0.50;0.47;;;28.10;99.90;;;;;;6138426;23;20027;-89
2022/08/24 11:22:09;;;;;;;0.75;0.50;;;28.10;99.90;;;;;;6184800;23;20024;-90
2022/08/24 11:24:41;;;;;;;0.52;0.52;;;28.10;99.90;;;;;;6134386;23;20435;-90
2022/08/24 11:27:17;;;;;;;0.70;0.70;;;28.20;99.90;;;;;;6156893;23;20039;-90
2022/08/24 11:29:54;;;;;;;1.30;0.60;;;28.20;99.90;;;;;;6160283;23;20017;-89
2022/08/24 11:32:37;;;;;;;0.85;0.60;;;28.30;99.90;;;;;;6135536;23;20047;-89
2022/08/24 11:35:08;;;;;;;0.52;0.45;;;28.50;99.90;;;;;;6137049;23;20388;-90
2022/08/24 11:37:36;;;;;;;0.57;0.52;;;28.80;99.90;;;;;;6137738;23;20031;-90
2022/08/24 11:40:05;;;;;;;0.50;0.50;;;29.00;99.90;;;;;;6143730;23;20036;-90
2022/08/24 11:42:55;;;;;;;0.65;0.63;;;29.30;99.90;;;;;;6142815;23;20013;-90
2022/08/24 11:45:29;;;;;;;0.43;0.43;;;29.30;98.20;;;;;;6159531;23;20021;-90
2022/08/24 11:48:05;;;;;;;0.40;0.40;;;29.30;97.80;;;;;;6133224;23;20025;-90
2022/08/24 11:51:01;;;;;;;0.47;0.47;;;29.50;98.20;;;;;;6183097;23;20344;-90
2022/08/24 11:53:47;;;;;;;0.52;0.52;;;29.90;97.80;;;;;;6180982;23;20017;-90
2022/08/24 11:56:44;;;;;;;0.40;0.40;;;30.20;97.80;;;;;;6161013;23;20020;-91
2022/08/24 11:59:36;;;;;;;0.70;0.70;;;30.60;96.60;;;;;;6138423;23;20466;-90
2022/08/24 12:02:07;;;;;;;0.60;0.60;;;30.40;96.60;;;;;;6135147;23;20051;-90
2022/08/24 12:05:01;;;;;;;0.60;0.60;;;30.60;96.60;;;;;;6108999;23;20028;-90
2022/08/24 12:07:43;;;;;;;0.60;0.60;;;30.90;96.20;;;;;;6118559;23;20016;-92
2022/08/24 12:10:23;;;;;;;0.60;0.40;;;31.10;95.40;;;;;;6186567;23;20473;-91
2022/08/24 12:13:21;;;;;;;0.68;0.50;;;31.40;95.20;;;;;;6138000;23;20016;-91
2022/08/24 12:16:10;;;;;;;0.63;0.60;;;31.40;94.90;;;;;;6184501;23;20025;-91
2022/08/24 12:18:52;;;;;;;0.45;0.40;;;31.70;94.40;;;;;;6186915;23;20042;-90
2022/08/24 12:21:32;;;;;;;0.52;0.52;;;31.50;94.10;;;;;;6190724;23;20016;-90
2022/08/24 12:24:07;;;;;;;0.30;0.30;;;31.00;94.00;;;;;;6141592;23;20016;-90
2022/08/24 12:26:44;;;;;;;0.43;0.40;;;30.70;94.60;;;;;;6140828;23;20017;-90
2022/08/24 12:29:15;;;;;;;0.50;0.50;;;30.40;94.70;;;;;;6136952;23;20100;-90
2022/08/24 12:31:49;;;;;;;0.70;0.65;;;30.70;94.50;;;;;;6158966;23;20016;-91
2022/08/24 12:34:30;;;;;;;0.50;0.50;;;30.80;93.90;;;;;;6134270;23;20317;-90
2022/08/24 12:37:02;;;;;;;0.70;0.70;;;30.90;93.40;;;;;;6138522;23;20392;-90
2022/08/24 12:39:47;;;;;;;0.63;0.60;;;31.00;93.50;;;;;;6167265;23;20028;-92
2022/08/24 12:42:24;;;;;;;0.80;0.73;;;31.60;93.30;;;;;;6138210;23;20016;-91
2022/08/24 12:44:57;;;;;;;1.70;1.23;;;32.10;92.70;;;;;;6138133;23;20078;-91
2022/08/24 12:47:55;;;;;;;1.35;1.00;;;32.10;92.00;;;;;;6140302;23;20024;-91
2022/08/24 12:50:29;;;;;;;0.57;0.52;;;32.50;92.00;;;;;;6151950;23;20019;-90
2022/08/24 12:52:56;;;;;;;0.70;0.60;;;32.80;90.90;;;;;;6160999;23;20024;-91
2022/08/24 12:55:42;;;;;;;0.57;0.57;;;33.00;91.20;;;;;;6185868;23;20017;-91
2022/08/24 12:58:22;;;;;;;0.35;0.32;;;33.70;90.40;;;;;;6185251;23;20020;-90
2022/08/24 13:01:04;;;;;;;0.52;0.47;;;33.70;89.50;;;;;;6146345;23;20120;-90
2022/08/24 13:03:37;;;;;;;0.40;0.40;;;32.90;89.10;;;;;;6137143;23;20020;-90
2022/08/24 13:06:05;;;;;;;;;;;32.90;90.10;;;;;;6137029;23;20061;-92
2022/08/24 13:08:38;;;;;;;0.40;0.40;;;33.20;89.60;;;;;;6161062;23;19916;-91
2022/08/24 13:11:09;;;;;;;0.30;0.30;;;33.80;90.00;;;;;;6161793;23;20036;-91
2022/08/24 13:13:48;;;;;;;0.40;0.40;;;34.50;86.90;;;;;;6160820;23;20017;-90
2022/08/24 13:16:43;;;;;;;0.50;0.50;;;34.70;87.20;;;;;;6137379;23;20427;-89
2022/08/24 13:19:16;;;;;;;0.60;0.50;;;35.00;87.90;;;;;;6185488;23;20013;-91
2022/08/24 13:21:46;;;;;;;0.35;0.35;;;35.50;86.50;;;;;;6136200;23;20135;-91
2022/08/24 13:24:28;;;;;;;0.40;0.40;;;36.10;83.80;;;;;;6134182;23;20024;-91
2022/08/24 13:27:35;;;;;;;0.73;0.60;;;35.80;82.70;;;;;;6183173;23;20024;-91
2022/08/24 13:30:17;;;;;;;0.45;0.40;;;35.80;82.50;;;;;;6178617;23;20384;-91
2022/08/24 13:32:45;;;;;;;0.30;0.30;;;35.60;81.30;;;;;;6133328;23;20420;-91
2022/08/24 13:35:38;;;;;;;0.38;0.38;;;35.60;82.20;;;;;;6130497;23;20331;-91
2022/08/24 13:38:33;;;;;;;0.30;0.30;;;35.90;81.10;;;;;;6155561;23;20107;-92
2022/08/24 13:41:42;;;;;;;0.40;0.40;;;36.00;80.50;;;;;;6180559;23;20024;-90
2022/08/24 13:44:28;;;;;;;0.43;0.43;;;36.00;79.30;;;;;;6031448;23;20022;-90